Time;durP1;ratioP1;P1;durP2;ratioP2;P2;SDS_P1;SDS_P2;PMS_P1;PMS_P2;Temp;Humidity;BMP_temperature;BMP_pressure;BME280_temperature;BME280_humidity;BME280_pressure;Samples;Min_cycle;Max_cycle;Signal;HPM_P1;HPM_P2
2021/12/27 00:04:26;;;;;;;2.30;1.97;;;16.70;53.80;;;;;;10413047;28;20202;-73
2021/12/27 00:09:49;;;;;;;3.73;2.17;;;16.70;53.70;;;;;;10410777;28;20712;-73
2021/12/27 00:15:13;;;;;;;2.10;1.80;;;16.70;53.70;;;;;;10411481;28;20209;-74
2021/12/27 00:20:36;;;;;;;2.23;1.63;;;16.70;53.70;;;;;;10409564;28;20285;-73
2021/12/27 00:25:58;;;;;;;2.83;1.90;;;16.70;53.80;;;;;;10410578;28;20197;-73
2021/12/27 00:31:21;;;;;;;2.60;1.77;;;16.70;53.60;;;;;;10410263;28;20240;-73
2021/12/27 00:36:43;;;;;;;3.33;1.90;;;16.70;53.70;;;;;;10409689;28;20217;-73
2021/12/27 00:42:07;;;;;;;2.00;1.47;;;16.70;53.70;;;;;;10409391;28;20221;-73
2021/12/27 00:47:30;;;;;;;3.27;1.97;;;16.70;53.80;;;;;;10409693;28;20203;-73
2021/12/27 00:52:52;;;;;;;2.67;1.87;;;16.70;53.80;;;;;;10386761;28;20640;-73
2021/12/27 00:58:14;;;;;;;3.03;1.90;;;16.70;53.80;;;;;;10408645;28;20221;-73
2021/12/27 01:03:38;;;;;;;2.93;1.80;;;16.70;53.70;;;;;;10410039;28;20569;-73
2021/12/27 01:09:00;;;;;;;2.30;1.90;;;16.70;53.80;;;;;;10408908;28;20214;-73
2021/12/27 01:14:38;;;;;;;2.63;1.90;;;16.70;53.70;;;;;;10409299;28;20213;-73
2021/12/27 01:20:01;;;;;;;2.17;1.63;;;16.70;53.80;;;;;;10407700;28;20736;-73
2021/12/27 01:25:25;;;;;;;2.23;1.77;;;16.70;53.80;;;;;;10409368;28;20193;-73
2021/12/27 01:30:49;;;;;;;2.40;1.97;;;16.70;53.80;;;;;;10371340;28;20713;-73
2021/12/27 01:36:14;;;;;;;2.97;2.00;;;16.70;53.80;;;;;;10408474;28;20221;-74
2021/12/27 01:41:36;;;;;;;2.73;1.90;;;16.70;53.80;;;;;;10387129;28;20222;-73
2021/12/27 01:46:58;;;;;;;2.57;1.77;;;16.70;53.90;;;;;;10408768;28;20202;-73
2021/12/27 01:52:22;;;;;;;2.10;1.73;;;16.70;53.90;;;;;;10406521;28;20229;-73
2021/12/27 01:57:44;;;;;;;3.30;2.30;;;16.70;53.80;;;;;;10411807;28;20600;-72
2021/12/27 02:03:06;;;;;;;2.53;1.90;;;16.70;53.80;;;;;;10416011;28;20205;-74
2021/12/27 02:08:31;;;;;;;2.80;1.93;;;16.70;53.80;;;;;;10415851;28;20704;-73
2021/12/27 02:13:53;;;;;;;3.20;2.20;;;16.70;53.90;;;;;;10415538;28;20206;-73
2021/12/27 02:19:15;;;;;;;2.63;2.10;;;16.70;53.90;;;;;;10414558;28;20236;-73
2021/12/27 02:24:40;;;;;;;2.57;1.97;;;16.70;53.90;;;;;;10415044;28;20197;-73
2021/12/27 02:30:03;;;;;;;3.27;2.00;;;16.70;53.90;;;;;;10376943;28;20225;-73
2021/12/27 02:35:27;;;;;;;3.80;2.17;;;16.70;53.90;;;;;;10414019;28;20193;-73
2021/12/27 02:40:52;;;;;;;3.63;2.37;;;16.70;53.90;;;;;;10400144;28;20232;-73
2021/12/27 02:46:15;;;;;;;2.77;2.27;;;16.70;53.90;;;;;;10414632;28;20186;-73
2021/12/27 02:51:37;;;;;;;3.00;2.30;;;16.70;53.90;;;;;;10414616;28;20252;-73
2021/12/27 02:57:00;;;;;;;3.43;2.37;;;16.70;53.90;;;;;;10414417;28;20209;-73
2021/12/27 03:02:22;;;;;;;3.70;2.40;;;16.70;53.90;;;;;;10413379;28;20210;-73
2021/12/27 03:07:46;;;;;;;3.10;2.40;;;16.70;53.90;;;;;;10413742;28;20210;-73
2021/12/27 03:13:15;;;;;;;3.53;2.37;;;16.70;54.40;;;;;;10411584;28;20201;-73
2021/12/27 03:18:39;;;;;;;4.47;2.37;;;16.70;54.00;;;;;;10412432;28;20681;-73
2021/12/27 03:24:01;;;;;;;4.20;2.70;;;16.70;53.90;;;;;;10412918;28;20197;-73
2021/12/27 03:29:25;;;;;;;4.23;2.50;;;16.60;53.80;;;;;;10411984;28;20206;-73
2021/12/27 03:34:54;;;;;;;3.57;2.70;;;16.70;54.00;;;;;;10412426;28;20197;-73
2021/12/27 03:40:18;;;;;;;3.33;2.57;;;16.70;53.90;;;;;;10411144;28;20222;-74
2021/12/27 03:45:42;;;;;;;4.60;3.10;;;16.70;54.00;;;;;;10405550;28;20190;-73
2021/12/27 03:51:05;;;;;;;4.30;2.90;;;16.70;54.00;;;;;;10410637;28;20781;-73
2021/12/27 03:56:27;;;;;;;3.97;2.60;;;16.60;54.00;;;;;;10411566;28;20846;-73
2021/12/27 04:01:51;;;;;;;4.00;2.57;;;16.60;54.00;;;;;;10411176;28;20210;-73
2021/12/27 04:07:13;;;;;;;4.63;2.80;;;16.60;54.00;;;;;;10410944;28;20205;-73
2021/12/27 04:12:36;;;;;;;3.67;2.63;;;16.60;53.90;;;;;;10410495;28;20558;-72
2021/12/27 04:18:00;;;;;;;5.63;2.90;;;16.60;54.00;;;;;;10411401;28;20221;-72
2021/12/27 04:23:22;;;;;;;3.97;2.90;;;16.60;54.10;;;;;;10410017;28;20193;-73
2021/12/27 04:28:44;;;;;;;4.40;3.00;;;16.60;54.10;;;;;;10411287;28;20218;-71
2021/12/27 04:34:08;;;;;;;4.00;2.90;;;16.60;54.10;;;;;;10406239;28;20277;-73
2021/12/27 04:39:30;;;;;;;4.30;2.80;;;16.60;54.20;;;;;;10407082;28;20227;-72
2021/12/27 04:44:52;;;;;;;3.83;2.90;;;16.60;54.10;;;;;;10409135;28;20204;-72
2021/12/27 04:50:16;;;;;;;4.00;3.03;;;16.60;54.10;;;;;;10410542;28;20221;-72
2021/12/27 04:55:39;;;;;;;4.03;2.90;;;16.60;54.10;;;;;;10409981;28;20190;-73
2021/12/27 05:01:01;;;;;;;4.70;3.37;;;16.60;54.10;;;;;;10410465;28;20232;-73
2021/12/27 05:06:24;;;;;;;5.03;3.27;;;16.60;54.10;;;;;;10409775;28;20208;-73
2021/12/27 05:11:46;;;;;;;5.17;3.43;;;16.60;54.10;;;;;;10410471;28;20220;-73
2021/12/27 05:17:08;;;;;;;4.60;3.40;;;16.70;54.20;;;;;;10407668;28;20210;-73
2021/12/27 05:22:32;;;;;;;4.97;3.30;;;16.70;54.30;;;;;;10405154;28;20193;-73
2021/12/27 05:27:54;;;;;;;4.70;3.10;;;16.70;54.20;;;;;;10411061;28;20224;-72
2021/12/27 05:33:17;;;;;;;5.33;3.63;;;16.70;54.30;;;;;;10413735;28;20682;-72
2021/12/27 05:38:43;;;;;;;4.10;3.07;;;16.70;54.30;;;;;;10414066;28;20224;-73
2021/12/27 05:44:06;;;;;;;4.63;3.17;;;16.70;54.20;;;;;;10415210;28;20665;-73
2021/12/27 05:49:28;;;;;;;5.27;3.07;;;16.60;54.10;;;;;;10418497;28;20221;-73
2021/12/27 05:54:51;;;;;;;4.67;3.23;;;16.70;54.20;;;;;;10412664;28;20202;-72
2021/12/27 06:00:15;;;;;;;4.63;3.30;;;16.70;54.20;;;;;;10413182;28;20608;-73
2021/12/27 06:05:37;;;;;;;4.57;3.07;;;16.70;54.20;;;;;;10417914;28;20756;-73
2021/12/27 06:11:01;;;;;;;6.10;4.00;;;16.70;54.20;;;;;;10416435;28;20214;-72
2021/12/27 06:16:23;;;;;;;5.93;3.53;;;16.70;54.20;;;;;;10375110;28;20211;-73
2021/12/27 06:21:45;;;;;;;5.83;3.63;;;16.70;54.30;;;;;;10375564;28;20597;-73
2021/12/27 06:27:09;;;;;;;5.60;3.60;;;16.70;54.20;;;;;;10375172;28;20557;-72
2021/12/27 06:32:31;;;;;;;4.70;3.67;;;16.70;54.30;;;;;;10407050;28;20198;-73
2021/12/27 06:37:53;;;;;;;5.10;3.60;;;16.70;54.30;;;;;;10414322;28;20221;-73
2021/12/27 06:43:16;;;;;;;5.63;3.70;;;16.70;54.30;;;;;;10416386;28;20206;-72
2021/12/27 06:48:38;;;;;;;5.67;3.93;;;16.70;54.30;;;;;;10408069;28;20228;-72
2021/12/27 06:54:00;;;;;;;5.50;3.67;;;16.70;55.10;;;;;;10434910;23;20260;-71
2021/12/27 06:59:24;;;;;;;5.57;3.93;;;16.70;54.60;;;;;;10469494;28;20231;-71
2021/12/27 07:04:46;;;;;;;6.10;3.87;;;16.70;54.50;;;;;;10451494;28;20248;-70
2021/12/27 07:10:11;;;;;;;6.77;3.87;;;16.80;54.60;;;;;;10453542;28;20611;-70
2021/12/27 07:15:40;;;;;;;6.23;3.30;;;16.70;54.50;;;;;;10471387;28;20281;-70
2021/12/27 07:21:03;;;;;;;5.40;3.77;;;16.80;54.50;;;;;;10452587;28;20662;-70
2021/12/27 07:26:25;;;;;;;6.17;3.63;;;16.80;54.40;;;;;;10463721;28;20564;-70
2021/12/27 07:31:49;;;;;;;5.73;3.70;;;16.70;54.40;;;;;;10459775;28;20676;-70
2021/12/27 07:37:15;;;;;;;5.30;3.50;;;16.80;54.40;;;;;;10442064;28;20215;-69
2021/12/27 07:42:38;;;;;;;6.37;3.70;;;16.70;54.40;;;;;;10421479;28;20208;-70
2021/12/27 07:48:02;;;;;;;5.77;3.87;;;16.80;54.50;;;;;;10429575;28;20201;-69
2021/12/27 07:53:24;;;;;;;5.47;3.80;;;16.80;54.40;;;;;;10427081;28;20228;-70
2021/12/27 07:58:46;;;;;;;7.13;4.20;;;16.80;54.50;;;;;;10430272;28;20214;-71
2021/12/27 08:04:10;;;;;;;5.83;3.50;;;16.70;53.90;;;;;;10431380;28;20217;-70
2021/12/27 08:09:33;;;;;;;5.17;3.57;;;16.60;54.00;;;;;;10420084;28;20198;-71
2021/12/27 08:14:55;;;;;;;5.60;3.77;;;16.60;54.00;;;;;;10423111;28;20232;-71
2021/12/27 08:20:18;;;;;;;5.37;3.67;;;16.60;55.10;;;;;;10422497;28;20226;-70
2021/12/27 08:25:40;;;;;;;6.13;3.80;;;16.70;54.40;;;;;;10417040;28;20234;-70
2021/12/27 08:31:02;;;;;;;4.97;3.90;;;16.70;54.50;;;;;;10426948;28;21024;-71
2021/12/27 08:36:26;;;;;;;6.03;3.83;;;16.70;54.60;;;;;;10426747;28;20220;-70
2021/12/27 08:41:48;;;;;;;4.90;3.73;;;16.70;54.50;;;;;;10430409;28;20235;-71
2021/12/27 08:47:12;;;;;;;5.10;3.97;;;16.70;54.40;;;;;;10439531;28;20201;-72
2021/12/27 08:52:36;;;;;;;5.83;3.60;;;16.60;54.50;;;;;;10439419;28;20236;-72
2021/12/27 08:57:58;;;;;;;6.80;4.40;;;16.60;54.40;;;;;;10439640;28;20217;-71
2021/12/27 09:03:20;;;;;;;5.17;3.90;;;16.60;54.50;;;;;;10447133;28;20228;-70
2021/12/27 09:08:44;;;;;;;5.07;3.90;;;16.60;54.50;;;;;;10443930;28;20663;-71
2021/12/27 09:14:06;;;;;;;5.97;3.97;;;16.60;54.50;;;;;;10449323;28;20213;-71
2021/12/27 09:19:28;;;;;;;6.50;4.17;;;16.60;54.70;;;;;;10448698;28;20213;-71
2021/12/27 09:24:52;;;;;;;5.03;3.77;;;16.60;54.60;;;;;;10442293;28;21015;-71
2021/12/27 09:30:14;;;;;;;7.43;4.40;;;16.60;54.70;;;;;;10448251;28;20258;-71
2021/12/27 09:35:37;;;;;;;5.93;4.00;;;16.60;54.70;;;;;;10446988;28;20276;-70
2021/12/27 09:41:00;;;;;;;6.67;3.97;;;16.50;54.70;;;;;;10444320;28;20232;-70
2021/12/27 09:46:23;;;;;;;5.83;3.87;;;16.50;54.80;;;;;;10443340;28;20201;-70
2021/12/27 09:51:46;;;;;;;5.60;3.90;;;16.60;54.80;;;;;;10442431;28;20228;-70
2021/12/27 09:57:10;;;;;;;5.67;3.90;;;16.50;54.80;;;;;;10441823;28;20343;-70
2021/12/27 10:02:35;;;;;;;7.57;4.47;;;16.50;54.80;;;;;;10440421;28;20229;-70
2021/12/27 10:07:58;;;;;;;6.20;4.20;;;16.50;54.80;;;;;;10439734;28;20201;-70
2021/12/27 10:13:23;;;;;;;4.80;3.67;;;16.50;54.90;;;;;;10443849;28;20220;-70
2021/12/27 10:18:45;;;;;;;7.30;4.37;;;16.60;55.10;;;;;;10443038;28;20201;-71
2021/12/27 10:24:10;;;;;;;5.90;4.10;;;16.60;55.00;;;;;;10445086;28;20221;-70
2021/12/27 10:29:35;;;;;;;6.47;3.70;;;16.50;55.00;;;;;;10444082;28;20185;-70
2021/12/27 10:34:58;;;;;;;5.93;3.97;;;16.50;55.00;;;;;;10445990;28;20217;-70
2021/12/27 10:40:22;;;;;;;5.20;3.63;;;16.60;55.30;;;;;;10479888;28;20267;-71
2021/12/27 10:45:50;;;;;;;6.97;4.13;;;16.50;55.10;;;;;;10475515;28;20189;-71
2021/12/27 10:51:12;;;;;;;6.27;4.13;;;16.50;55.00;;;;;;10467194;28;20236;-71
2021/12/27 10:56:51;;;;;;;5.97;4.00;;;16.50;55.10;;;;;;10471965;28;20196;-70
2021/12/27 11:02:15;;;;;;;6.20;4.17;;;16.50;55.00;;;;;;10446944;28;20712;-71
2021/12/27 11:07:37;;;;;;;6.13;4.07;;;16.50;55.20;;;;;;10453179;28;20199;-71
2021/12/27 11:13:00;;;;;;;6.03;3.87;;;16.50;55.10;;;;;;10465214;28;20221;-71
2021/12/27 11:18:24;;;;;;;5.83;3.93;;;16.50;55.20;;;;;;10466809;28;20249;-71
2021/12/27 11:23:49;;;;;;;5.97;4.23;;;16.50;55.20;;;;;;10464618;28;20209;-71
2021/12/27 11:29:14;;;;;;;5.13;4.00;;;16.50;55.30;;;;;;10472582;28;20192;-71
2021/12/27 11:34:54;;;;;;;6.10;3.80;;;16.50;55.30;;;;;;10455209;28;20223;-71
2021/12/27 11:40:17;;;;;;;6.27;4.23;;;16.50;55.10;;;;;;10468691;28;20213;-70
2021/12/27 11:45:43;;;;;;;6.07;4.50;;;16.50;55.10;;;;;;10461934;28;20191;-71
2021/12/27 11:51:10;;;;;;;7.00;4.13;;;16.50;55.10;;;;;;10440008;28;20221;-71
2021/12/27 11:56:49;;;;;;;5.80;3.90;;;16.50;55.10;;;;;;10473091;28;20318;-71
2021/12/27 12:02:25;;;;;;;6.27;3.93;;;16.50;55.10;;;;;;10459462;28;20259;-71
2021/12/27 12:07:52;;;;;;;7.33;4.57;;;16.50;55.10;;;;;;10469287;28;20192;-69
2021/12/27 12:13:26;;;;;;;5.63;4.17;;;16.60;55.60;;;;;;10472488;28;20223;-69
2021/12/27 12:19:09;;;;;;;8.03;4.73;;;16.70;55.60;;;;;;10437701;28;20216;-69
2021/12/27 12:24:33;;;;;;;6.33;4.60;;;16.70;55.60;;;;;;10462414;28;20223;-69
2021/12/27 12:29:56;;;;;;;7.13;3.97;;;16.70;55.60;;;;;;10469028;28;20204;-69
2021/12/27 12:35:35;;;;;;;7.00;4.37;;;16.80;55.60;;;;;;10462961;28;20217;-70
2021/12/27 12:41:03;;;;;;;6.90;4.47;;;16.80;55.50;;;;;;10447575;28;20225;-69
2021/12/27 12:46:27;;;;;;;5.53;3.97;;;16.80;55.50;;;;;;10461039;28;20193;-69
2021/12/27 12:51:52;;;;;;;5.87;4.10;;;16.80;55.50;;;;;;10465595;28;20217;-69
2021/12/27 12:57:17;;;;;;;6.10;4.13;;;16.80;55.50;;;;;;10463458;28;20201;-71
2021/12/27 13:02:41;;;;;;;6.30;4.40;;;16.80;55.40;;;;;;10437373;28;20703;-71
2021/12/27 13:08:04;;;;;;;6.80;4.43;;;16.70;54.70;;;;;;10448076;28;20275;-67
2021/12/27 13:13:27;;;;;;;8.87;4.53;;;16.70;55.40;;;;;;10455285;28;20236;-67
2021/12/27 13:18:49;;;;;;;5.00;4.13;;;16.70;55.50;;;;;;10461606;28;20209;-67
2021/12/27 13:24:11;;;;;;;7.23;4.70;;;16.70;55.60;;;;;;10452686;28;20684;-68
2021/12/27 13:29:35;;;;;;;7.53;4.37;;;16.70;55.60;;;;;;10453598;28;20212;-67
2021/12/27 13:34:57;;;;;;;7.47;4.40;;;16.80;55.70;;;;;;10431457;28;20255;-67
2021/12/27 13:40:19;;;;;;;6.90;4.57;;;16.80;55.70;;;;;;10446825;28;20837;-67
2021/12/27 13:45:44;;;;;;;6.50;4.53;;;16.80;55.80;;;;;;10448658;28;20189;-67
2021/12/27 13:51:06;;;;;;;7.07;4.73;;;16.80;55.80;;;;;;10476242;28;20220;-67
2021/12/27 13:56:30;;;;;;;6.43;4.17;;;16.80;55.80;;;;;;10441011;28;20602;-70
2021/12/27 14:01:59;;;;;;;6.07;3.90;;;16.80;55.80;;;;;;10453040;28;20228;-70
2021/12/27 14:07:23;;;;;;;6.50;4.20;;;16.80;55.70;;;;;;10464168;28;20232;-71
2021/12/27 14:12:55;;;;;;;6.63;3.90;;;16.80;55.80;;;;;;10468505;28;20215;-70
2021/12/27 14:18:19;;;;;;;7.03;4.33;;;16.70;55.70;;;;;;10464282;28;20200;-70
2021/12/27 14:23:41;;;;;;;5.67;4.13;;;16.70;55.90;;;;;;10475815;28;20707;-72
2021/12/27 14:29:17;;;;;;;4.47;3.53;;;16.70;56.10;;;;;;10467488;28;20203;-71
2021/12/27 14:34:45;;;;;;;6.00;4.30;;;16.80;56.10;;;;;;10467315;28;20221;-71
2021/12/27 14:40:08;;;;;;;5.77;4.00;;;16.80;56.10;;;;;;10461625;28;20208;-71
2021/12/27 14:45:31;;;;;;;5.70;4.10;;;16.70;56.10;;;;;;10460560;28;20197;-72
2021/12/27 14:50:55;;;;;;;6.10;4.00;;;16.70;56.20;;;;;;10452256;28;20593;-71
2021/12/27 14:56:17;;;;;;;7.00;4.77;;;16.70;56.40;;;;;;10472035;28;20211;-72
2021/12/27 15:01:39;;;;;;;5.63;3.80;;;16.70;56.40;;;;;;10457233;28;20231;-71
2021/12/27 15:07:03;;;;;;;5.53;3.70;;;16.70;56.40;;;;;;10466969;28;20201;-70
2021/12/27 15:12:25;;;;;;;6.03;3.80;;;16.70;56.40;;;;;;10460679;28;20585;-70
2021/12/27 15:17:51;;;;;;;5.63;3.93;;;16.60;56.70;;;;;;10449376;28;20208;-71
2021/12/27 15:23:17;;;;;;;6.23;4.43;;;16.70;56.60;;;;;;10464783;28;20594;-71
2021/12/27 15:28:44;;;;;;;5.70;3.70;;;16.70;56.70;;;;;;10465744;28;20656;-72
2021/12/27 15:34:07;;;;;;;5.57;4.00;;;16.70;56.70;;;;;;10481835;28;20592;-72
2021/12/27 15:39:31;;;;;;;5.60;4.20;;;16.70;56.60;;;;;;10465417;28;20213;-71
2021/12/27 15:44:53;;;;;;;4.63;3.70;;;16.60;56.60;;;;;;10452894;28;20701;-71
2021/12/27 15:50:16;;;;;;;7.23;4.33;;;16.60;56.50;;;;;;10467674;28;20200;-71
2021/12/27 15:55:40;;;;;;;5.47;3.77;;;16.70;56.60;;;;;;10464558;28;20200;-71
2021/12/27 16:01:03;;;;;;;6.17;3.87;;;16.60;56.60;;;;;;10442184;28;20721;-71
2021/12/27 16:06:25;;;;;;;5.10;3.60;;;16.60;56.60;;;;;;10455883;28;20204;-72
2021/12/27 16:11:48;;;;;;;4.50;3.77;;;16.60;56.50;;;;;;10452951;28;20580;-71
2021/12/27 16:17:11;;;;;;;6.27;3.70;;;16.60;56.60;;;;;;10471288;28;20199;-72
2021/12/27 16:22:33;;;;;;;5.20;4.00;;;16.60;56.60;;;;;;10457820;28;20231;-73
2021/12/27 16:27:57;;;;;;;4.70;3.63;;;16.70;56.80;;;;;;10458380;28;20204;-72
2021/12/27 16:33:19;;;;;;;5.40;3.83;;;16.60;56.90;;;;;;10463216;28;20288;-70
2021/12/27 16:38:42;;;;;;;5.03;3.83;;;16.70;56.90;;;;;;10463443;28;20193;-72
2021/12/27 16:44:05;;;;;;;7.20;3.77;;;16.70;57.00;;;;;;10462447;28;20216;-71
2021/12/27 16:49:28;;;;;;;5.60;3.77;;;16.70;57.00;;;;;;10462061;28;20201;-72
2021/12/27 16:54:50;;;;;;;4.57;3.23;;;16.70;57.10;;;;;;10448473;28;20726;-72
2021/12/27 17:00:16;;;;;;;6.70;3.60;;;16.70;57.20;;;;;;10462531;28;20217;-72
2021/12/27 17:05:40;;;;;;;5.13;3.60;;;16.70;57.10;;;;;;10454179;28;20679;-72
2021/12/27 17:11:05;;;;;;;6.40;3.43;;;16.70;57.20;;;;;;10434847;28;20580;-69
2021/12/27 17:16:28;;;;;;;5.83;3.63;;;16.70;57.30;;;;;;10459524;28;20213;-68
2021/12/27 17:21:50;;;;;;;6.47;3.50;;;16.80;57.10;;;;;;10452984;28;20231;-69
2021/12/27 17:27:14;;;;;;;4.73;3.47;;;16.80;57.00;;;;;;10470093;28;20205;-69
2021/12/27 17:32:37;;;;;;;4.73;3.50;;;16.80;56.90;;;;;;10471142;28;20710;-68
2021/12/27 17:38:00;;;;;;;5.93;4.40;;;16.80;57.20;;;;;;10409625;28;20935;-72
2021/12/27 17:43:23;;;;;;;5.00;3.90;;;17.80;54.20;;;;;;10413558;28;20218;-73
2021/12/27 17:48:47;;;;;;;6.10;3.63;;;17.10;55.40;;;;;;10448722;28;20204;-72
2021/12/27 17:54:09;;;;;;;4.97;4.00;;;16.90;56.20;;;;;;10453074;28;20432;-72
2021/12/27 17:59:31;;;;;;;5.23;3.53;;;17.30;55.30;;;;;;10451815;28;20216;-72
2021/12/27 18:04:54;;;;;;;4.87;3.63;;;17.00;56.20;;;;;;10453497;28;20299;-72
2021/12/27 18:10:18;;;;;;;5.13;3.80;;;16.90;56.70;;;;;;10454079;28;20925;-72
2021/12/27 18:15:41;;;;;;;5.68;3.40;;;16.90;56.90;;;;;;10450806;28;20084;-69
2021/12/27 18:21:05;;;;;;;4.73;3.60;;;16.80;57.00;;;;;;10453134;28;20209;-68
2021/12/27 18:26:27;;;;;;;4.77;3.53;;;16.90;57.20;;;;;;10450815;28;20567;-68
2021/12/27 18:32:13;;;;;;;5.30;3.57;;;16.90;57.20;;;;;;10447749;28;20217;-69
2021/12/27 18:37:44;;;;;;;5.03;3.30;;;16.90;57.00;;;;;;10443282;28;20216;-72
2021/12/27 18:43:11;;;;;;;4.87;3.53;;;16.90;57.00;;;;;;10439185;28;20228;-72
2021/12/27 18:48:34;;;;;;;5.83;3.63;;;16.90;57.00;;;;;;10448270;28;20197;-72
2021/12/27 18:53:58;;;;;;;4.77;3.30;;;16.90;56.90;;;;;;10446440;28;20224;-71
2021/12/27 18:59:21;;;;;;;7.87;4.10;;;16.90;56.80;;;;;;10438069;28;20591;-71
2021/12/27 19:04:43;;;;;;;5.47;3.70;;;16.90;56.70;;;;;;10423454;28;20220;-71
2021/12/27 19:10:08;;;;;;;5.87;3.93;;;16.90;56.70;;;;;;10429006;28;20201;-71
2021/12/27 19:15:30;;;;;;;7.17;3.87;;;16.90;56.70;;;;;;10425661;28;20731;-71
2021/12/27 19:20:52;;;;;;;6.47;4.00;;;16.90;56.80;;;;;;10425002;28;20227;-71
2021/12/27 19:26:16;;;;;;;4.53;3.33;;;16.90;56.80;;;;;;10420675;28;20198;-71
2021/12/27 19:31:38;;;;;;;4.43;3.10;;;16.90;56.70;;;;;;10425766;28;20222;-71
2021/12/27 19:37:00;;;;;;;5.30;3.23;;;16.90;56.80;;;;;;10427660;28;20201;-71
2021/12/27 19:42:24;;;;;;;4.53;3.60;;;16.90;56.80;;;;;;10430027;28;20237;-73
2021/12/27 19:47:47;;;;;;;5.37;3.57;;;16.90;56.80;;;;;;10427383;28;20190;-71
2021/12/27 19:53:09;;;;;;;5.57;3.73;;;16.90;56.90;;;;;;10432421;28;20734;-70
2021/12/27 19:58:33;;;;;;;3.70;2.93;;;16.90;56.90;;;;;;10425229;28;20205;-71
2021/12/27 20:03:55;;;;;;;6.03;3.30;;;16.90;56.90;;;;;;10424930;28;20638;-71
2021/12/27 20:09:17;;;;;;;4.60;2.90;;;16.90;56.90;;;;;;10428550;28;20201;-71
2021/12/27 20:14:41;;;;;;;4.10;3.03;;;16.90;56.90;;;;;;10419447;28;20278;-71
2021/12/27 20:20:05;;;;;;;3.50;2.90;;;16.90;56.90;;;;;;10437370;28;20216;-71
2021/12/27 20:25:28;;;;;;;4.07;3.10;;;16.90;57.00;;;;;;10446130;28;20220;-71
2021/12/27 20:30:52;;;;;;;3.43;3.00;;;16.90;57.00;;;;;;10448337;28;20241;-72
2021/12/27 20:36:15;;;;;;;4.20;3.10;;;16.90;57.10;;;;;;10445210;28;20197;-72
2021/12/27 20:41:37;;;;;;;4.77;3.30;;;16.90;57.10;;;;;;10447570;28;20221;-72
2021/12/27 20:47:00;;;;;;;4.20;3.00;;;16.90;57.10;;;;;;10484076;28;20201;-72
2021/12/27 20:52:22;;;;;;;5.27;3.33;;;16.90;57.20;;;;;;10473670;28;20225;-72
2021/12/27 20:57:46;;;;;;;4.93;3.20;;;16.90;57.10;;;;;;10448644;28;20208;-71
2021/12/27 21:03:10;;;;;;;4.73;2.80;;;16.90;57.20;;;;;;10448167;28;20232;-72
2021/12/27 21:08:32;;;;;;;4.00;2.80;;;17.00;57.20;;;;;;10452341;28;20208;-71
2021/12/27 21:13:55;;;;;;;3.07;2.43;;;17.00;57.30;;;;;;10451985;28;20220;-71
2021/12/27 21:19:18;;;;;;;6.33;3.10;;;16.90;57.20;;;;;;10472000;28;20668;-72
2021/12/27 21:24:41;;;;;;;4.13;3.00;;;16.90;57.20;;;;;;10446746;28;20224;-72
2021/12/27 21:30:04;;;;;;;4.53;2.83;;;16.90;57.20;;;;;;10436616;28;20201;-71
2021/12/27 21:35:28;;;;;;;3.87;2.60;;;16.90;57.20;;;;;;10446504;28;20221;-71
2021/12/27 21:40:50;;;;;;;4.47;2.80;;;17.00;57.20;;;;;;10446653;28;20232;-71
2021/12/27 21:46:12;;;;;;;4.03;3.00;;;16.90;57.20;;;;;;10446011;28;20196;-72
2021/12/27 21:51:36;;;;;;;3.70;2.50;;;16.90;57.20;;;;;;10461161;28;20216;-71
2021/12/27 21:57:00;;;;;;;3.70;2.93;;;16.90;57.30;;;;;;10459174;28;20208;-71
2021/12/27 22:02:22;;;;;;;3.10;2.70;;;16.90;57.20;;;;;;10444455;28;20252;-71
2021/12/27 22:07:47;;;;;;;3.50;2.60;;;16.90;57.20;;;;;;10448068;28;20275;-72
2021/12/27 22:13:09;;;;;;;3.47;2.67;;;16.90;57.20;;;;;;10465281;28;20707;-72
2021/12/27 22:18:32;;;;;;;3.17;2.73;;;16.90;57.30;;;;;;10452798;28;20201;-71
2021/12/27 22:23:55;;;;;;;3.03;2.63;;;16.90;57.30;;;;;;10453035;28;20715;-71
2021/12/27 22:29:17;;;;;;;3.60;2.83;;;16.80;57.20;;;;;;10476476;28;20196;-71
2021/12/27 22:34:39;;;;;;;3.43;2.70;;;16.80;57.30;;;;;;10475398;28;20219;-71
2021/12/27 22:40:04;;;;;;;2.87;2.33;;;16.90;57.30;;;;;;10470634;28;20603;-71
2021/12/27 22:45:27;;;;;;;3.37;2.53;;;16.90;57.30;;;;;;10498720;28;20223;-71
2021/12/27 22:50:54;;;;;;;3.13;2.40;;;16.90;57.30;;;;;;10492133;28;20587;-72
2021/12/27 22:56:18;;;;;;;3.37;2.80;;;16.80;57.30;;;;;;10437553;28;20223;-71
2021/12/27 23:01:40;;;;;;;4.13;3.00;;;16.90;57.40;;;;;;10413516;28;20442;-71
2021/12/27 23:07:02;;;;;;;3.03;2.50;;;16.80;57.30;;;;;;10450956;28;20201;-70
2021/12/27 23:12:29;;;;;;;3.53;2.57;;;16.90;57.30;;;;;;10450193;28;20217;-71
2021/12/27 23:17:52;;;;;;;3.70;2.80;;;16.90;57.30;;;;;;10454691;28;20563;-71
2021/12/27 23:23:15;;;;;;;3.73;2.70;;;16.80;57.40;;;;;;10449658;28;20221;-71
2021/12/27 23:28:38;;;;;;;3.53;2.27;;;16.80;57.30;;;;;;10450904;28;20197;-72
2021/12/27 23:34:01;;;;;;;3.07;2.23;;;16.90;57.40;;;;;;10449453;28;20650;-71
2021/12/27 23:39:24;;;;;;;3.70;2.50;;;16.80;57.30;;;;;;10450060;28;20204;-71
2021/12/27 23:44:47;;;;;;;3.03;2.40;;;16.80;57.30;;;;;;10449784;28;20216;-71
2021/12/27 23:50:10;;;;;;;3.40;2.70;;;16.80;57.30;;;;;;10448635;28;20185;-71
2021/12/27 23:55:33;;;;;;;3.20;2.53;;;16.90;57.40;;;;;;10448413;28;20286;-71
